Time;durP1;ratioP1;P1;durP2;ratioP2;P2;SDS_P1;SDS_P2;PMS_P1;PMS_P2;Temp;Humidity;BMP_temperature;BMP_pressure;BME280_temperature;BME280_humidity;BME280_pressure;Samples;Min_cycle;Max_cycle;Signal;HPM_P1;HPM_P2
2023/01/28 00:00:54;;;;;;;11.43;4.78;;;2.90;99.90;;;;;;5114523;28;20447;-65
2023/01/28 00:03:22;;;;;;;17.40;6.40;;;2.90;99.90;;;;;;5118095;28;20043;-65
2023/01/28 00:05:50;;;;;;;12.15;5.07;;;2.90;99.90;;;;;;5114273;28;20085;-65
2023/01/28 00:08:16;;;;;;;16.85;5.28;;;2.90;99.90;;;;;;5118107;28;20067;-65
2023/01/28 00:10:43;;;;;;;18.75;6.80;;;2.90;99.90;;;;;;5117509;28;20047;-65
2023/01/28 00:13:13;;;;;;;10.07;5.18;;;2.80;99.90;;;;;;5097501;28;20046;-64
2023/01/28 00:15:41;;;;;;;15.90;6.13;;;2.80;99.90;;;;;;5102515;28;20096;-65
2023/01/28 00:18:08;;;;;;;14.45;5.40;;;3.00;99.90;;;;;;5123601;28;20049;-65
2023/01/28 00:20:36;;;;;;;13.43;6.53;;;3.00;99.90;;;;;;5093152;28;20154;-65
2023/01/28 00:23:04;;;;;;;14.10;5.50;;;3.00;99.90;;;;;;5097662;28;20433;-65
2023/01/28 00:25:31;;;;;;;17.58;6.15;;;3.00;99.90;;;;;;5108563;28;20044;-64
2023/01/28 00:28:01;;;;;;;15.57;5.68;;;3.00;99.90;;;;;;5109285;28;20039;-65
2023/01/28 00:30:28;;;;;;;16.38;5.78;;;3.00;99.90;;;;;;5117087;28;20054;-64
2023/01/28 00:32:55;;;;;;;16.52;6.05;;;3.00;99.90;;;;;;5107494;28;20071;-64
2023/01/28 00:35:22;;;;;;;11.13;6.00;;;3.10;99.90;;;;;;5097219;28;20046;-66
2023/01/28 00:37:49;;;;;;;11.90;5.72;;;3.10;99.90;;;;;;5125034;28;20043;-64
2023/01/28 00:40:16;;;;;;;19.48;6.55;;;3.20;99.90;;;;;;5114811;28;20043;-64
2023/01/28 00:42:43;;;;;;;25.80;7.68;;;3.10;99.90;;;;;;5108271;28;20050;-65
2023/01/28 00:45:10;;;;;;;12.32;6.35;;;3.00;99.90;;;;;;5095096;28;20107;-65
2023/01/28 00:47:38;;;;;;;21.33;7.10;;;3.00;99.90;;;;;;5126424;28;20047;-65
2023/01/28 00:50:05;;;;;;;15.63;6.88;;;2.90;99.90;;;;;;5101417;28;20044;-65
2023/01/28 00:52:32;;;;;;;14.68;6.45;;;3.00;99.90;;;;;;5087408;28;20085;-66
2023/01/28 00:54:59;;;;;;;20.30;4.90;;;3.00;99.90;;;;;;5117459;28;20040;-65
2023/01/28 00:57:26;;;;;;;14.77;4.93;;;3.10;99.90;;;;;;5105335;28;20048;-65
2023/01/28 00:59:53;;;;;;;14.43;4.80;;;3.10;99.90;;;;;;5097944;28;20044;-65
2023/01/28 01:02:20;;;;;;;17.02;5.70;;;3.20;99.90;;;;;;5112185;28;20509;-66
2023/01/28 01:05:00;;;;;;;16.23;5.20;;;3.20;99.90;;;;;;5112568;28;20047;-67
2023/01/28 01:07:33;;;;;;;11.30;5.05;;;3.20;99.90;;;;;;5092556;28;20044;-66
2023/01/28 01:10:01;;;;;;;16.23;5.20;;;3.30;99.90;;;;;;5073517;28;20211;-64
2023/01/28 01:12:28;;;;;;;16.08;5.60;;;3.20;99.90;;;;;;5116867;28;20077;-66
2023/01/28 01:14:56;;;;;;;13.57;5.43;;;3.20;99.90;;;;;;5101279;28;20048;-65
2023/01/28 01:17:23;;;;;;;13.90;6.05;;;3.20;99.90;;;;;;5100693;28;20417;-65
2023/01/28 01:19:50;;;;;;;13.32;5.50;;;3.10;99.90;;;;;;5103386;28;20082;-67
2023/01/28 01:22:16;;;;;;;13.45;5.10;;;3.20;99.90;;;;;;5123159;28;20075;-65
2023/01/28 01:24:43;;;;;;;16.15;6.68;;;3.20;99.90;;;;;;5116278;28;20052;-65
2023/01/28 01:27:10;;;;;;;13.82;5.72;;;3.20;99.90;;;;;;5115358;28;20099;-65
2023/01/28 01:29:38;;;;;;;13.85;5.72;;;3.20;99.90;;;;;;5106082;28;20164;-65
2023/01/28 01:32:04;;;;;;;12.00;5.05;;;3.20;99.90;;;;;;5112031;28;20065;-65
2023/01/28 01:34:31;;;;;;;13.18;5.22;;;3.30;99.90;;;;;;5124089;28;20051;-66
2023/01/28 01:36:58;;;;;;;8.93;4.82;;;3.20;99.90;;;;;;5121222;28;20073;-65
2023/01/28 01:39:25;;;;;;;17.80;5.55;;;3.30;99.90;;;;;;5123979;28;20556;-66
2023/01/28 01:41:52;;;;;;;12.98;4.63;;;3.30;99.90;;;;;;5071501;28;20066;-66
2023/01/28 01:44:56;;;;;;;9.75;4.03;;;3.40;99.90;;;;;;5102874;28;20078;-65
2023/01/28 01:47:30;;;;;;;9.07;4.05;;;3.40;99.90;;;;;;5114885;28;20044;-65
2023/01/28 01:49:58;;;;;;;12.98;4.38;;;3.50;99.90;;;;;;5105105;28;20117;-65
2023/01/28 01:52:27;;;;;;;10.75;5.32;;;3.50;99.90;;;;;;5089421;28;20115;-66
2023/01/28 01:54:55;;;;;;;14.07;4.75;;;3.60;99.90;;;;;;5107500;28;20040;-66
2023/01/28 01:57:26;;;;;;;12.93;5.28;;;3.60;99.90;;;;;;5107286;28;20043;-65
2023/01/28 01:59:53;;;;;;;16.30;4.50;;;3.60;99.90;;;;;;5126229;28;20048;-65
2023/01/28 02:02:20;;;;;;;12.82;4.60;;;3.50;99.90;;;;;;5095806;28;20076;-65
2023/01/28 02:04:47;;;;;;;10.65;4.07;;;3.50;99.90;;;;;;5091077;28;20043;-65
2023/01/28 02:07:16;;;;;;;7.95;3.72;;;3.60;99.90;;;;;;5103900;28;20143;-65
2023/01/28 02:09:43;;;;;;;12.80;4.97;;;3.60;99.90;;;;;;5091703;28;20047;-65
2023/01/28 02:12:17;;;;;;;15.48;4.47;;;3.60;99.90;;;;;;5121142;28;20043;-65
2023/01/28 02:14:47;;;;;;;11.93;4.07;;;3.70;99.90;;;;;;5088096;28;20107;-65
2023/01/28 02:17:14;;;;;;;12.80;3.78;;;3.70;99.90;;;;;;5075479;28;20048;-66
2023/01/28 02:19:58;;;;;;;13.73;4.53;;;3.70;99.90;;;;;;5088685;28;20048;-65
2023/01/28 02:22:42;;;;;;;10.05;4.80;;;3.70;99.90;;;;;;5101152;28;20055;-65
2023/01/28 02:25:26;;;;;;;15.25;5.25;;;3.70;99.90;;;;;;5108890;28;20050;-65
2023/01/28 02:28:08;;;;;;;11.38;3.53;;;3.70;99.90;;;;;;5098382;28;20180;-65
2023/01/28 02:30:37;;;;;;;12.15;6.53;;;3.80;99.90;;;;;;5106046;28;20130;-65
2023/01/28 02:33:18;;;;;;;14.43;6.03;;;3.80;99.90;;;;;;5102137;28;20077;-66
2023/01/28 02:35:51;;;;;;;10.75;3.50;;;3.80;99.90;;;;;;5058130;28;20056;-64
2023/01/28 02:38:30;;;;;;;14.57;4.82;;;3.80;99.90;;;;;;5118583;28;20120;-65
2023/01/28 02:41:08;;;;;;;13.85;4.18;;;3.90;99.90;;;;;;5088747;28;20059;-64
2023/01/28 02:43:38;;;;;;;12.40;4.13;;;3.90;99.90;;;;;;5091948;28;20120;-66
2023/01/28 02:49:51;;;;;;;13.43;3.78;;;3.90;99.90;;;;;;5032500;28;20433;-64
2023/01/28 02:55:55;;;;;;;13.10;2.95;;;3.90;99.90;;;;;;5092965;28;20056;-65
2023/01/28 02:58:36;;;;;;;17.25;3.05;;;3.90;99.90;;;;;;5098911;28;20067;-65
2023/01/28 03:01:12;;;;;;;8.30;2.83;;;3.90;99.90;;;;;;5108580;28;20044;-64
2023/01/28 03:03:49;;;;;;;13.88;3.47;;;3.90;99.90;;;;;;5117532;28;20044;-64
2023/01/28 03:06:22;;;;;;;8.52;3.00;;;3.90;99.90;;;;;;5102813;28;20050;-64
2023/01/28 03:36:54;;;;;;;10.35;2.85;;;3.90;99.90;;;;;;5093664;28;20048;-66
2023/01/28 03:39:26;;;;;;;14.90;2.90;;;3.90;99.90;;;;;;5114383;28;20075;-65
2023/01/28 03:42:03;;;;;;;12.55;2.97;;;3.90;99.90;;;;;;5083795;28;20495;-65
2023/01/28 03:44:49;;;;;;;6.60;2.63;;;3.90;99.90;;;;;;5110634;28;20036;-65
2023/01/28 03:47:20;;;;;;;20.73;3.95;;;3.90;99.90;;;;;;5128644;28;20055;-64
2023/01/28 03:49:48;;;;;;;9.15;2.83;;;3.90;99.90;;;;;;5125124;28;20065;-65
2023/01/28 03:52:20;;;;;;;9.10;1.95;;;3.90;99.90;;;;;;5120166;28;20103;-65
2023/01/28 03:54:47;;;;;;;10.30;2.97;;;3.80;99.90;;;;;;5103230;28;20112;-65
2023/01/28 03:57:15;;;;;;;4.40;1.73;;;3.90;99.90;;;;;;5118148;28;20130;-65
2023/01/28 03:59:42;;;;;;;3.78;1.80;;;3.90;99.90;;;;;;5127387;28;20044;-64
2023/01/28 04:02:12;;;;;;;12.32;2.00;;;3.90;99.90;;;;;;5116417;28;20042;-65
2023/01/28 04:04:39;;;;;;;6.63;1.88;;;4.00;99.90;;;;;;5105562;28;20387;-63
2023/01/28 04:07:09;;;;;;;9.32;2.03;;;4.00;99.90;;;;;;5102332;28;20106;-64
2023/01/28 04:09:36;;;;;;;2.88;1.52;;;4.10;99.90;;;;;;5094275;28;20054;-65
2023/01/28 04:12:04;;;;;;;5.03;1.70;;;4.10;99.90;;;;;;5105235;28;20116;-64
2023/01/28 04:14:32;;;;;;;4.53;2.35;;;4.10;99.90;;;;;;5107325;28;20093;-64
2023/01/28 04:16:59;;;;;;;8.85;3.17;;;4.10;99.90;;;;;;5104335;28;20391;-65
2023/01/28 04:19:27;;;;;;;6.55;1.73;;;4.10;99.90;;;;;;5092009;28;20039;-64
2023/01/28 04:21:54;;;;;;;6.45;1.40;;;4.00;99.90;;;;;;5121908;28;20047;-65
2023/01/28 04:24:21;;;;;;;5.78;1.70;;;4.10;99.90;;;;;;5107641;28;20044;-65
2023/01/28 04:26:49;;;;;;;7.35;1.88;;;4.10;99.90;;;;;;5121655;28;20058;-65
2023/01/28 04:29:16;;;;;;;9.60;2.03;;;4.10;99.90;;;;;;5109680;28;20043;-64
2023/01/28 04:31:43;;;;;;;6.78;1.75;;;4.20;99.90;;;;;;5122516;28;20036;-65
2023/01/28 04:34:10;;;;;;;9.70;2.40;;;4.20;99.90;;;;;;5127501;28;20065;-65
2023/01/28 04:36:37;;;;;;;3.88;1.85;;;4.20;99.90;;;;;;5088889;28;20040;-67
2023/01/28 04:39:04;;;;;;;10.85;2.83;;;4.20;99.90;;;;;;5113673;28;20143;-65
2023/01/28 04:41:31;;;;;;;10.55;2.38;;;4.10;99.90;;;;;;5096598;28;20023;-65
2023/01/28 04:43:58;;;;;;;7.53;2.55;;;4.20;99.90;;;;;;5116658;28;20067;-65
2023/01/28 04:46:25;;;;;;;9.23;1.90;;;4.20;99.90;;;;;;5111589;28;20110;-65
2023/01/28 04:48:52;;;;;;;13.75;2.35;;;4.20;99.90;;;;;;5115721;28;20070;-65
2023/01/28 04:51:19;;;;;;;8.73;1.80;;;4.20;99.90;;;;;;5108888;28;20069;-65
2023/01/28 04:53:46;;;;;;;7.93;2.85;;;4.20;99.90;;;;;;5093533;28;20073;-65
2023/01/28 04:56:13;;;;;;;4.60;1.60;;;4.20;99.90;;;;;;5108344;28;20077;-65
2023/01/28 04:58:40;;;;;;;5.15;1.20;;;4.20;99.90;;;;;;5115862;28;20040;-65
2023/01/28 05:01:07;;;;;;;7.13;1.80;;;4.20;99.90;;;;;;5128344;28;20072;-65
2023/01/28 05:03:40;;;;;;;8.68;1.92;;;4.20;99.90;;;;;;5113804;28;20040;-65
2023/01/28 05:06:07;;;;;;;5.03;2.42;;;4.20;99.90;;;;;;5073553;28;20086;-65
2023/01/28 05:08:37;;;;;;;6.93;2.28;;;4.20;99.90;;;;;;5121470;28;20051;-65
2023/01/28 05:11:04;;;;;;;4.75;1.42;;;4.20;99.90;;;;;;5128059;28;20068;-64
2023/01/28 05:13:30;;;;;;;6.90;2.33;;;4.20;99.90;;;;;;5126668;28;20051;-64
2023/01/28 05:15:58;;;;;;;3.50;1.60;;;4.30;99.90;;;;;;5090796;28;20076;-64
2023/01/28 05:18:25;;;;;;;6.78;1.80;;;4.30;99.90;;;;;;5090405;28;20040;-64
2023/01/28 05:20:51;;;;;;;5.65;2.05;;;4.30;99.90;;;;;;5090857;28;20054;-63
2023/01/28 05:23:18;;;;;;;6.68;2.08;;;4.20;99.90;;;;;;5118020;28;20059;-65
2023/01/28 05:25:45;;;;;;;6.03;2.10;;;4.30;99.90;;;;;;5095605;28;20099;-64
2023/01/28 05:28:12;;;;;;;6.40;2.05;;;4.20;99.90;;;;;;5094968;28;20153;-64
2023/01/28 05:30:40;;;;;;;8.30;1.52;;;4.30;99.90;;;;;;5120546;28;20459;-64
2023/01/28 05:33:07;;;;;;;3.60;1.55;;;4.20;99.90;;;;;;5108203;28;20051;-63
2023/01/28 05:35:35;;;;;;;7.03;1.98;;;4.20;99.90;;;;;;5100221;28;20078;-64
2023/01/28 05:38:02;;;;;;;5.88;2.33;;;4.20;99.90;;;;;;5125965;28;20135;-64
2023/01/28 05:40:29;;;;;;;4.43;1.88;;;4.20;99.90;;;;;;5116483;28;20047;-65
2023/01/28 05:42:56;;;;;;;9.48;2.03;;;4.10;99.90;;;;;;5126278;28;20107;-65
2023/01/28 05:45:23;;;;;;;8.98;3.17;;;4.20;99.90;;;;;;5116220;28;20061;-64
2023/01/28 05:47:50;;;;;;;7.28;2.17;;;4.10;99.90;;;;;;5109222;28;20061;-64
2023/01/28 05:50:17;;;;;;;7.95;2.35;;;4.10;99.90;;;;;;5119629;28;20082;-65
2023/01/28 05:52:44;;;;;;;12.40;2.60;;;4.10;99.90;;;;;;5089733;28;20048;-64
2023/01/28 05:55:11;;;;;;;10.00;2.88;;;4.10;99.90;;;;;;5120089;28;20104;-65
2023/01/28 05:57:38;;;;;;;5.05;1.83;;;4.10;99.90;;;;;;5127614;28;20069;-65
2023/01/28 06:00:05;;;;;;;10.50;3.13;;;4.20;99.90;;;;;;5123492;28;20043;-64
2023/01/28 06:02:32;;;;;;;5.95;2.13;;;4.20;99.90;;;;;;5089682;28;20108;-65
2023/01/28 06:04:59;;;;;;;7.15;2.42;;;4.20;99.90;;;;;;5116759;28;20036;-66
2023/01/28 06:07:26;;;;;;;4.47;2.60;;;4.20;99.90;;;;;;5092647;28;20040;-65
2023/01/28 06:09:53;;;;;;;10.27;2.95;;;4.20;99.90;;;;;;5080843;28;20063;-65
2023/01/28 06:12:20;;;;;;;7.10;3.17;;;4.30;99.90;;;;;;5109303;28;20518;-65
2023/01/28 06:14:47;;;;;;;5.93;2.60;;;4.20;99.90;;;;;;5122414;28;20075;-65
2023/01/28 06:17:14;;;;;;;8.82;2.83;;;4.20;99.90;;;;;;5121687;28;20057;-65
2023/01/28 06:19:40;;;;;;;8.38;2.40;;;4.20;99.90;;;;;;5105778;28;20040;-65
2023/01/28 06:22:08;;;;;;;9.73;3.05;;;4.20;99.90;;;;;;5099733;28;20072;-65
2023/01/28 06:24:35;;;;;;;5.38;2.45;;;4.20;99.90;;;;;;5091973;28;20491;-64
2023/01/28 06:27:01;;;;;;;9.05;4.47;;;4.20;99.90;;;;;;5115895;28;20063;-65
2023/01/28 06:29:28;;;;;;;11.20;2.95;;;4.20;99.90;;;;;;5108895;28;20056;-65
2023/01/28 06:31:55;;;;;;;5.80;2.30;;;4.20;99.90;;;;;;5126717;28;20050;-64
2023/01/28 06:34:22;;;;;;;8.65;2.83;;;4.20;99.90;;;;;;5127299;28;20103;-64
2023/01/28 06:36:51;;;;;;;11.95;2.72;;;4.20;99.90;;;;;;5121684;28;20044;-65
2023/01/28 06:39:20;;;;;;;5.00;2.78;;;4.20;99.90;;;;;;5123509;28;20051;-65
2023/01/28 06:41:49;;;;;;;10.75;3.13;;;4.20;99.90;;;;;;5114115;28;20411;-64
2023/01/28 06:44:15;;;;;;;5.10;2.50;;;4.10;99.90;;;;;;5127143;28;20073;-64
2023/01/28 06:46:42;;;;;;;3.30;2.20;;;4.10;99.90;;;;;;5105278;28;20063;-65
2023/01/28 06:49:10;;;;;;;13.00;2.67;;;4.10;99.90;;;;;;5109604;28;20044;-64
2023/01/28 06:51:37;;;;;;;7.25;2.72;;;4.10;99.90;;;;;;5114953;28;20135;-64
2023/01/28 06:54:04;;;;;;;10.73;2.80;;;4.10;99.90;;;;;;5112517;28;20450;-65
2023/01/28 06:56:31;;;;;;;8.20;2.88;;;4.10;99.90;;;;;;5107689;28;20067;-65
2023/01/28 06:58:58;;;;;;;6.85;2.35;;;4.10;99.90;;;;;;5115311;28;20044;-65
2023/01/28 07:01:25;;;;;;;7.15;2.47;;;4.10;99.90;;;;;;5097709;28;20051;-65
2023/01/28 07:03:52;;;;;;;6.22;2.28;;;4.20;99.90;;;;;;5131458;28;20047;-65
2023/01/28 07:06:19;;;;;;;10.20;2.60;;;4.20;99.90;;;;;;5130527;28;20071;-64
2023/01/28 07:08:46;;;;;;;11.35;2.10;;;4.20;99.90;;;;;;5131152;28;20039;-64
2023/01/28 07:11:13;;;;;;;13.88;3.50;;;4.20;99.90;;;;;;5127913;28;20039;-64
2023/01/28 07:13:40;;;;;;;4.45;2.67;;;4.20;99.90;;;;;;5083211;28;20448;-64
2023/01/28 07:16:07;;;;;;;10.18;2.65;;;4.20;99.90;;;;;;5093420;28;20082;-65
2023/01/28 07:18:34;;;;;;;4.78;1.70;;;4.20;99.90;;;;;;5104138;28;20111;-65
2023/01/28 07:21:01;;;;;;;4.57;2.38;;;4.20;99.90;;;;;;5092545;28;20071;-65
2023/01/28 07:23:29;;;;;;;3.30;1.65;;;4.20;99.90;;;;;;5118655;28;20048;-65
2023/01/28 07:26:00;;;;;;;3.30;1.90;;;4.30;99.90;;;;;;5130807;28;20359;-66
2023/01/28 07:28:28;;;;;;;11.55;2.67;;;4.20;99.90;;;;;;5098903;28;20064;-65
2023/01/28 07:30:54;;;;;;;8.32;2.00;;;4.20;99.90;;;;;;5130828;28;20043;-65
2023/01/28 07:33:21;;;;;;;4.57;1.88;;;4.20;99.90;;;;;;5117573;28;20089;-65
2023/01/28 07:35:48;;;;;;;5.57;1.95;;;4.20;99.90;;;;;;5113655;28;20054;-66
2023/01/28 07:38:15;;;;;;;8.43;2.28;;;4.20;99.90;;;;;;5125789;28;20071;-65
2023/01/28 07:40:42;;;;;;;7.32;2.67;;;4.20;99.90;;;;;;5112374;28;20048;-66
2023/01/28 07:43:09;;;;;;;9.75;2.85;;;4.20;99.90;;;;;;5097880;28;20039;-65
2023/01/28 07:45:36;;;;;;;5.68;2.30;;;4.20;99.90;;;;;;5108563;28;20048;-66
2023/01/28 07:48:05;;;;;;;9.93;2.40;;;4.30;99.90;;;;;;5107896;28;20111;-65
2023/01/28 07:50:34;;;;;;;17.73;3.70;;;4.30;99.90;;;;;;5116161;28;20048;-65
2023/01/28 07:53:05;;;;;;;10.38;2.55;;;4.30;99.90;;;;;;5096462;28;20048;-65
2023/01/28 07:55:34;;;;;;;4.68;2.33;;;4.30;99.90;;;;;;5117505;28;20051;-65
2023/01/28 07:58:02;;;;;;;9.55;2.80;;;4.20;99.90;;;;;;5112956;28;20074;-66
2023/01/28 08:00:31;;;;;;;8.10;2.17;;;4.20;99.90;;;;;;5101760;28;20070;-65
2023/01/28 08:03:00;;;;;;;16.02;3.30;;;4.20;99.90;;;;;;5107634;28;20090;-66
2023/01/28 08:05:31;;;;;;;10.55;3.33;;;4.20;99.90;;;;;;5117913;28;20063;-65
2023/01/28 08:07:58;;;;;;;11.05;2.70;;;4.20;99.90;;;;;;5122947;28;20047;-66
2023/01/28 08:10:25;;;;;;;9.55;3.17;;;4.30;99.90;;;;;;5098387;28;20043;-65
2023/01/28 08:12:57;;;;;;;15.02;4.45;;;4.20;99.90;;;;;;5094347;28;20059;-65
2023/01/28 08:15:24;;;;;;;7.63;2.65;;;4.30;99.90;;;;;;5120260;28;20048;-66
2023/01/28 08:17:53;;;;;;;12.05;2.88;;;4.40;99.90;;;;;;5108831;28;20568;-64
2023/01/28 08:20:22;;;;;;;8.15;3.53;;;4.40;99.90;;;;;;5117506;28;20108;-64
2023/01/28 08:22:49;;;;;;;24.52;3.63;;;4.40;99.90;;;;;;5129473;28;20044;-63
2023/01/28 08:25:15;;;;;;;12.05;3.78;;;4.40;99.90;;;;;;5122375;28;20039;-64
2023/01/28 08:27:42;;;;;;;21.70;3.08;;;4.40;99.90;;;;;;5109346;28;20071;-66
2023/01/28 08:30:10;;;;;;;16.38;3.42;;;4.40;99.90;;;;;;5112678;28;20051;-65
2023/01/28 08:32:37;;;;;;;13.05;3.85;;;4.50;99.90;;;;;;5127794;28;20060;-65
2023/01/28 08:35:04;;;;;;;9.73;2.72;;;4.40;99.90;;;;;;5124593;28;20027;-65
2023/01/28 08:37:30;;;;;;;7.03;3.78;;;4.40;99.90;;;;;;5124575;28;20409;-65
2023/01/28 08:39:57;;;;;;;11.82;3.90;;;4.30;99.90;;;;;;5103303;28;20119;-65
2023/01/28 08:42:24;;;;;;;8.35;3.15;;;4.40;99.90;;;;;;5096945;28;20058;-65
2023/01/28 08:44:51;;;;;;;8.70;2.95;;;4.40;99.90;;;;;;5121787;28;20063;-65
2023/01/28 08:47:17;;;;;;;7.05;3.50;;;4.40;99.90;;;;;;5110604;28;20071;-65
2023/01/28 08:49:44;;;;;;;8.07;4.03;;;4.50;99.90;;;;;;5086987;28;20040;-64
2023/01/28 08:52:11;;;;;;;9.15;3.83;;;4.50;99.90;;;;;;5106708;28;20047;-66
2023/01/28 08:54:38;;;;;;;20.85;4.22;;;4.60;99.90;;;;;;5079695;28;20056;-66
2023/01/28 08:57:04;;;;;;;19.98;4.45;;;4.60;99.90;;;;;;5113987;28;20105;-67
2023/01/28 08:59:31;;;;;;;23.33;4.10;;;4.60;99.90;;;;;;5111226;28;20050;-66
2023/01/28 09:01:58;;;;;;;9.43;3.78;;;4.60;99.90;;;;;;5088849;28;20064;-66
2023/01/28 09:04:25;;;;;;;8.57;3.88;;;4.60;99.90;;;;;;5100217;28;20117;-65
2023/01/28 09:06:52;;;;;;;13.40;3.60;;;4.60;99.90;;;;;;5108891;28;20044;-64
2023/01/28 09:09:19;;;;;;;17.90;3.53;;;4.60;99.90;;;;;;5077264;28;20040;-64
2023/01/28 09:11:46;;;;;;;16.27;3.53;;;4.70;99.90;;;;;;5080076;28;20059;-65
2023/01/28 09:14:13;;;;;;;26.25;3.78;;;4.70;99.90;;;;;;5115352;28;20061;-65
2023/01/28 09:16:39;;;;;;;14.60;3.85;;;4.70;99.90;;;;;;5110141;28;20182;-65
2023/01/28 09:19:06;;;;;;;13.05;4.03;;;4.70;99.90;;;;;;5084751;28;20047;-66
2023/01/28 09:21:33;;;;;;;9.65;3.03;;;4.70;99.90;;;;;;5090431;28;20058;-67
2023/01/28 09:24:00;;;;;;;11.07;4.10;;;4.80;99.90;;;;;;5060564;28;20142;-65
2023/01/28 09:26:27;;;;;;;13.38;3.65;;;4.80;99.90;;;;;;5079442;28;20107;-64
2023/01/28 09:28:56;;;;;;;8.50;3.80;;;4.80;99.90;;;;;;5109962;28;20052;-64
2023/01/28 09:31:23;;;;;;;11.35;3.65;;;4.80;99.90;;;;;;5109317;28;20138;-64
2023/01/28 09:33:55;;;;;;;15.20;3.67;;;4.80;99.90;;;;;;5102442;28;20068;-65
2023/01/28 09:36:23;;;;;;;10.55;4.72;;;4.90;99.90;;;;;;4756152;28;10000252;-68
2023/01/28 09:38:51;;;;;;;15.88;3.33;;;4.90;99.90;;;;;;5101897;28;20048;-66
2023/01/28 09:41:23;;;;;;;13.10;4.20;;;5.00;99.90;;;;;;5078154;28;20318;-64
2023/01/28 09:44:01;;;;;;;38.13;4.65;;;5.00;99.90;;;;;;5065730;28;20401;-64
2023/01/28 09:46:36;;;;;;;23.60;5.65;;;5.10;99.90;;;;;;5088812;28;20054;-65
2023/01/28 09:49:18;;;;;;;9.80;3.80;;;5.10;99.90;;;;;;5081989;28;20101;-66
2023/01/28 09:51:48;;;;;;;8.00;3.55;;;5.20;99.90;;;;;;5042417;28;20283;-65
2023/01/28 09:54:34;;;;;;;22.20;4.40;;;5.20;99.90;;;;;;5040544;28;20068;-65
2023/01/28 09:57:11;;;;;;;18.48;3.67;;;5.30;99.90;;;;;;5077114;28;20067;-65
2023/01/28 09:59:39;;;;;;;15.55;4.35;;;5.30;99.90;;;;;;5057054;28;20052;-65
2023/01/28 10:02:45;;;;;;;8.15;4.53;;;5.30;99.90;;;;;;5077957;28;20051;-65
2023/01/28 10:05:24;;;;;;;24.00;5.43;;;5.30;99.90;;;;;;5042513;28;20135;-66
2023/01/28 10:08:05;;;;;;;11.77;3.90;;;5.40;99.90;;;;;;5088910;28;20063;-65
2023/01/28 10:10:42;;;;;;;11.95;5.15;;;5.40;99.90;;;;;;5091791;28;20131;-66
2023/01/28 10:13:46;;;;;;;12.48;5.80;;;5.40;99.90;;;;;;5091832;28;20043;-66
2023/01/28 10:16:18;;;;;;;14.65;6.50;;;5.50;99.90;;;;;;5093204;28;20335;-66
2023/01/28 10:18:52;;;;;;;16.58;6.03;;;5.60;99.90;;;;;;5097382;28;20138;-67
2023/01/28 10:21:21;;;;;;;20.05;6.47;;;5.60;99.90;;;;;;5075262;28;20048;-65
2023/01/28 10:23:51;;;;;;;17.38;6.00;;;5.80;99.90;;;;;;5103108;28;20146;-66
2023/01/28 10:26:24;;;;;;;12.43;5.65;;;5.70;99.90;;;;;;5076765;28;20051;-66
2023/01/28 10:28:59;;;;;;;32.35;7.25;;;5.70;99.90;;;;;;5062665;28;20167;-66
2023/01/28 10:31:34;;;;;;;7.68;5.35;;;5.70;99.90;;;;;;5094878;28;20059;-66
2023/01/28 10:34:03;;;;;;;23.70;6.43;;;5.70;99.90;;;;;;5095272;28;20039;-65
2023/01/28 10:36:30;;;;;;;18.65;5.97;;;5.70;99.90;;;;;;5106163;28;20048;-65
2023/01/28 10:38:57;;;;;;;12.63;5.78;;;5.70;99.90;;;;;;5089167;28;20075;-65
2023/01/28 10:41:25;;;;;;;15.98;6.72;;;5.70;99.90;;;;;;5093530;28;20071;-64
2023/01/28 10:43:52;;;;;;;16.73;7.30;;;5.80;99.90;;;;;;5095541;28;20044;-64
2023/01/28 10:46:26;;;;;;;15.02;7.28;;;5.80;99.90;;;;;;5086983;28;20048;-66
2023/01/28 10:49:11;;;;;;;13.90;6.68;;;5.90;99.90;;;;;;5072337;28;20040;-66
2023/01/28 10:51:39;;;;;;;17.90;6.07;;;5.90;99.90;;;;;;5084052;28;20055;-66
2023/01/28 10:54:33;;;;;;;16.35;7.13;;;5.90;99.90;;;;;;5088751;28;20383;-65
2023/01/28 10:57:01;;;;;;;22.38;5.95;;;5.90;99.90;;;;;;5077577;28;20047;-66
2023/01/28 10:59:29;;;;;;;13.07;7.65;;;6.00;99.90;;;;;;5081986;28;20110;-66
2023/01/28 11:02:04;;;;;;;11.45;5.82;;;6.10;99.90;;;;;;5113230;28;20065;-65
2023/01/28 11:04:33;;;;;;;9.63;5.13;;;6.10;99.90;;;;;;5078876;28;20048;-65
2023/01/28 11:07:00;;;;;;;22.85;5.85;;;6.20;99.90;;;;;;5098824;28;20442;-65
2023/01/28 11:09:35;;;;;;;21.67;6.05;;;6.20;99.90;;;;;;5112054;28;20048;-65
2023/01/28 11:12:11;;;;;;;18.88;5.47;;;6.10;99.90;;;;;;5105036;28;20052;-66
2023/01/28 11:14:48;;;;;;;11.77;6.15;;;6.10;99.90;;;;;;5101535;28;20047;-66
2023/01/28 11:17:15;;;;;;;17.33;6.18;;;6.00;99.90;;;;;;5092966;28;20401;-66
2023/01/28 11:19:43;;;;;;;18.35;6.78;;;6.10;99.90;;;;;;5082716;28;20081;-66
2023/01/28 11:22:20;;;;;;;14.65;5.97;;;6.10;99.90;;;;;;5090207;28;20131;-66
2023/01/28 11:24:47;;;;;;;13.95;6.03;;;6.10;99.90;;;;;;5098822;28;20039;-66
2023/01/28 11:27:15;;;;;;;12.70;5.88;;;6.20;99.90;;;;;;5108054;28;20059;-66
2023/01/28 11:29:42;;;;;;;13.88;5.22;;;6.20;99.90;;;;;;5066197;28;20122;-66
2023/01/28 11:32:18;;;;;;;12.60;7.43;;;6.30;99.90;;;;;;5092672;28;20048;-66
2023/01/28 11:34:49;;;;;;;14.48;6.43;;;6.30;99.90;;;;;;5082841;28;20119;-66
2023/01/28 11:37:17;;;;;;;14.90;5.35;;;6.30;99.90;;;;;;5078918;28;20144;-65
2023/01/28 11:39:44;;;;;;;10.27;4.85;;;6.30;99.90;;;;;;5081998;28;20048;-65
2023/01/28 11:42:17;;;;;;;21.48;5.68;;;6.20;99.90;;;;;;5107422;28;20044;-66
2023/01/28 11:44:45;;;;;;;6.85;4.75;;;6.20;99.90;;;;;;5099719;28;20064;-65
2023/01/28 11:47:32;;;;;;;16.20;5.68;;;6.30;99.90;;;;;;5080455;28;20406;-65
2023/01/28 11:50:28;;;;;;;13.52;5.68;;;6.30;99.90;;;;;;5117188;28;20292;-67
2023/01/28 11:53:07;;;;;;;8.50;6.10;;;6.40;99.90;;;;;;5109325;28;20063;-67
2023/01/28 11:55:45;;;;;;;18.80;8.63;;;6.40;99.90;;;;;;5082686;28;20036;-65
2023/01/28 11:58:26;;;;;;;14.35;6.88;;;6.50;99.90;;;;;;5089640;28;20055;-65
2023/01/28 12:00:58;;;;;;;15.57;6.60;;;6.40;99.90;;;;;;5095534;28;20048;-65
2023/01/28 12:03:55;;;;;;;17.70;7.15;;;6.40;99.90;;;;;;5083307;28;20050;-66
2023/01/28 12:06:27;;;;;;;18.92;8.90;;;6.40;99.90;;;;;;5058220;28;20360;-65
2023/01/28 12:09:00;;;;;;;17.25;8.82;;;6.60;99.90;;;;;;5088953;28;20071;-67
2023/01/28 12:14:51;;;;;;;34.35;9.35;;;6.80;99.90;;;;;;5118279;28;20051;-65
2023/01/28 12:17:31;;;;;;;18.23;7.82;;;6.80;99.90;;;;;;5113417;28;20051;-65
2023/01/28 12:20:10;;;;;;;18.75;8.65;;;6.80;99.90;;;;;;5100401;28;20558;-66
2023/01/28 12:22:45;;;;;;;24.20;9.50;;;6.80;99.90;;;;;;5105083;28;20051;-66
2023/01/28 12:25:37;;;;;;;26.38;9.75;;;6.80;99.90;;;;;;5112970;28;20048;-65
2023/01/28 12:28:09;;;;;;;21.13;8.95;;;6.80;99.90;;;;;;5095883;28;20107;-67
2023/01/28 12:30:48;;;;;;;24.20;9.23;;;6.80;99.90;;;;;;5100927;28;20079;-67
2023/01/28 12:33:40;;;;;;;25.92;10.05;;;6.80;99.90;;;;;;5060970;28;20055;-68
2023/01/28 12:36:32;;;;;;;40.78;9.02;;;6.70;99.90;;;;;;5063068;28;20550;-65
2023/01/28 12:39:38;;;;;;;17.13;8.15;;;6.70;99.90;;;;;;5091744;28;20569;-66
2023/01/28 12:42:09;;;;;;;22.52;9.30;;;6.70;99.90;;;;;;5068233;28;20484;-66
2023/01/28 12:44:42;;;;;;;16.00;9.93;;;6.70;99.90;;;;;;5071738;28;20040;-66
2023/01/28 12:47:36;;;;;;;20.77;9.90;;;6.70;99.90;;;;;;5081581;28;20056;-66
2023/01/28 12:50:11;;;;;;;18.17;9.00;;;6.80;99.90;;;;;;5067578;28;20044;-67
2023/01/28 12:52:40;;;;;;;17.65;7.45;;;6.80;99.90;;;;;;5098423;28;20244;-65
2023/01/28 12:55:18;;;;;;;26.58;9.07;;;6.70;99.90;;;;;;5044962;28;20041;-65
2023/01/28 12:57:44;;;;;;;21.25;8.27;;;6.70;99.90;;;;;;5063077;28;20410;-66
2023/01/28 13:00:16;;;;;;;19.70;7.90;;;6.80;99.90;;;;;;5071577;28;20127;-67
2023/01/28 13:03:07;;;;;;;14.93;8.25;;;6.70;99.90;;;;;;5061627;28;20507;-65
2023/01/28 13:05:37;;;;;;;19.77;8.65;;;6.60;99.90;;;;;;5082662;28;20402;-66
2023/01/28 13:08:10;;;;;;;19.02;7.82;;;6.60;99.90;;;;;;5064915;28;20233;-66
2023/01/28 13:10:44;;;;;;;20.45;7.50;;;6.60;99.90;;;;;;5091771;28;20051;-66
2023/01/28 13:13:30;;;;;;;18.63;8.32;;;6.70;99.90;;;;;;5079888;28;20071;-67
2023/01/28 13:15:57;;;;;;;15.32;7.47;;;6.80;99.90;;;;;;5072277;28;20059;-66
2023/01/28 13:18:33;;;;;;;23.23;8.00;;;6.90;99.90;;;;;;5060758;28;20112;-66
2023/01/28 13:21:01;;;;;;;18.67;10.23;;;7.00;99.90;;;;;;5071266;28;20056;-67
2023/01/28 13:23:45;;;;;;;24.02;8.02;;;7.00;99.90;;;;;;5063337;28;20268;-65
2023/01/28 13:26:17;;;;;;;13.00;6.60;;;7.00;99.90;;;;;;5061457;28;20131;-66
2023/01/28 13:28:44;;;;;;;11.77;5.72;;;7.00;99.90;;;;;;5079783;28;20063;-66
2023/01/28 13:31:19;;;;;;;20.38;8.82;;;7.10;99.90;;;;;;5082372;28;20066;-66
2023/01/28 13:33:48;;;;;;;16.02;6.78;;;7.10;99.90;;;;;;5119179;28;20047;-66
2023/01/28 13:36:25;;;;;;;12.73;6.28;;;7.10;99.90;;;;;;5081645;28;20143;-66
2023/01/28 13:39:15;;;;;;;15.45;6.82;;;7.10;99.90;;;;;;5083218;28;20065;-67
2023/01/28 13:41:47;;;;;;;20.92;7.47;;;7.10;99.90;;;;;;5091471;28;20494;-66
2023/01/28 13:44:26;;;;;;;15.70;6.18;;;7.10;99.90;;;;;;5083700;28;20078;-66
2023/01/28 13:47:11;;;;;;;17.10;6.57;;;7.00;99.90;;;;;;5108818;28;20120;-66